sensor_id;sensor_type;location;lat;lon;timestamp;pressure;altitude;pressure_sealevel;temperature;humidity
16777;BME280;8505;49.456;8.164;2023-08-21T00:00:08;100222.16;;;22.05;88.40
16777;BME280;8505;49.456;8.164;2023-08-21T00:02:36;100219.34;;;22.00;88.99
16777;BME280;8505;49.456;8.164;2023-08-21T00:05:05;100221.06;;;21.95;89.48
16777;BME280;8505;49.456;8.164;2023-08-21T00:07:34;100232.78;;;21.89;89.51
16777;BME280;8505;49.456;8.164;2023-08-21T00:10:02;100234.69;;;22.00;88.81
16777;BME280;8505;49.456;8.164;2023-08-21T00:12:30;100224.28;;;22.03;88.40
16777;BME280;8505;49.456;8.164;2023-08-21T00:14:57;100225.16;;;21.86;89.44
16777;BME280;8505;49.456;8.164;2023-08-21T00:17:25;100221.28;;;21.82;90.27
16777;BME280;8505;49.456;8.164;2023-08-21T00:19:53;100220.25;;;21.83;90.20
16777;BME280;8505;49.456;8.164;2023-08-21T00:22:21;100224.69;;;21.89;89.77
16777;BME280;8505;49.456;8.164;2023-08-21T00:24:50;100224.03;;;22.05;88.76
16777;BME280;8505;49.456;8.164;2023-08-21T00:27:17;100224.59;;;21.84;90.05
16777;BME280;8505;49.456;8.164;2023-08-21T00:29:45;100227.84;;;21.74;90.56
16777;BME280;8505;49.456;8.164;2023-08-21T00:32:13;100223.38;;;21.79;90.47
16777;BME280;8505;49.456;8.164;2023-08-21T00:34:41;100229.81;;;21.67;91.30
16777;BME280;8505;49.456;8.164;2023-08-21T00:37:09;100229.47;;;21.75;90.53
16777;BME280;8505;49.456;8.164;2023-08-21T00:39:37;100227.84;;;21.74;90.57
16777;BME280;8505;49.456;8.164;2023-08-21T00:42:06;100226.06;;;21.68;90.88
16777;BME280;8505;49.456;8.164;2023-08-21T00:44:34;100224.41;;;21.55;91.87
16777;BME280;8505;49.456;8.164;2023-08-21T00:47:02;100222.06;;;21.59;91.50
16777;BME280;8505;49.456;8.164;2023-08-21T00:49:30;100220.56;;;21.63;91.32
16777;BME280;8505;49.456;8.164;2023-08-21T00:52:00;100232.50;;;21.67;90.85
16777;BME280;8505;49.456;8.164;2023-08-21T00:54:28;100217.41;;;21.66;91.02
16777;BME280;8505;49.456;8.164;2023-08-21T00:56:57;100225.78;;;21.46;92.53
16777;BME280;8505;49.456;8.164;2023-08-21T00:59:26;100232.22;;;21.45;93.01
16777;BME280;8505;49.456;8.164;2023-08-21T01:01:54;100228.69;;;21.33;93.32
16777;BME280;8505;49.456;8.164;2023-08-21T01:04:22;100227.16;;;21.37;93.50
16777;BME280;8505;49.456;8.164;2023-08-21T01:06:50;100225.28;;;21.37;93.17
16777;BME280;8505;49.456;8.164;2023-08-21T01:09:24;100218.75;;;21.45;93.53
16777;BME280;8505;49.456;8.164;2023-08-21T01:12:00;100224.66;;;21.24;93.77
16777;BME280;8505;49.456;8.164;2023-08-21T01:14:38;100235.13;;;21.32;93.36
16777;BME280;8505;49.456;8.164;2023-08-21T01:17:11;100239.38;;;21.39;93.35
16777;BME280;8505;49.456;8.164;2023-08-21T01:19:42;100230.66;;;21.26;93.86
16777;BME280;8505;49.456;8.164;2023-08-21T01:22:10;100236.66;;;21.10;94.73
16777;BME280;8505;49.456;8.164;2023-08-21T01:24:40;100233.13;;;21.09;95.06
16777;BME280;8505;49.456;8.164;2023-08-21T01:27:08;100239.19;;;21.05;95.04
16777;BME280;8505;49.456;8.164;2023-08-21T01:29:36;100237.22;;;21.12;94.83
16777;BME280;8505;49.456;8.164;2023-08-21T01:32:07;100240.53;;;21.14;94.69
16777;BME280;8505;49.456;8.164;2023-08-21T01:34:37;100248.00;;;21.12;95.18
16777;BME280;8505;49.456;8.164;2023-08-21T01:37:07;100246.22;;;21.06;95.18
16777;BME280;8505;49.456;8.164;2023-08-21T01:39:35;100241.44;;;21.08;95.20
16777;BME280;8505;49.456;8.164;2023-08-21T01:42:05;100244.34;;;21.06;95.23
16777;BME280;8505;49.456;8.164;2023-08-21T01:44:33;100240.69;;;21.00;95.23
16777;BME280;8505;49.456;8.164;2023-08-21T01:47:00;100239.78;;;21.07;95.35
16777;BME280;8505;49.456;8.164;2023-08-21T01:49:28;100238.97;;;21.06;95.32
16777;BME280;8505;49.456;8.164;2023-08-21T01:51:56;100243.69;;;20.92;95.61
16777;BME280;8505;49.456;8.164;2023-08-21T01:54:24;100249.00;;;20.99;95.71
16777;BME280;8505;49.456;8.164;2023-08-21T01:56:52;100246.75;;;20.96;95.71
16777;BME280;8505;49.456;8.164;2023-08-21T01:59:21;100251.63;;;20.87;95.95
16777;BME280;8505;49.456;8.164;2023-08-21T02:01:49;100248.72;;;20.89;96.30
16777;BME280;8505;49.456;8.164;2023-08-21T02:04:17;100250.59;;;20.88;96.25
16777;BME280;8505;49.456;8.164;2023-08-21T02:06:45;100249.59;;;21.01;95.45
16777;BME280;8505;49.456;8.164;2023-08-21T02:09:12;100258.34;;;20.96;95.60
16777;BME280;8505;49.456;8.164;2023-08-21T02:11:40;100256.44;;;20.85;96.24
16777;BME280;8505;49.456;8.164;2023-08-21T02:14:08;100247.13;;;20.81;97.05
16777;BME280;8505;49.456;8.164;2023-08-21T02:16:37;100251.94;;;20.79;97.03
16777;BME280;8505;49.456;8.164;2023-08-21T02:19:04;100250.16;;;20.73;96.98
16777;BME280;8505;49.456;8.164;2023-08-21T02:21:34;100249.25;;;20.79;96.70
16777;BME280;8505;49.456;8.164;2023-08-21T02:24:03;100250.97;;;20.74;97.09
16777;BME280;8505;49.456;8.164;2023-08-21T02:26:31;100249.41;;;20.66;97.73
16777;BME280;8505;49.456;8.164;2023-08-21T02:28:58;100246.09;;;20.64;97.80
16777;BME280;8505;49.456;8.164;2023-08-21T02:31:26;100242.09;;;20.55;98.34
16777;BME280;8505;49.456;8.164;2023-08-21T02:33:55;100247.47;;;20.55;98.61
16777;BME280;8505;49.456;8.164;2023-08-21T02:36:23;100245.22;;;20.52;98.83
16777;BME280;8505;49.456;8.164;2023-08-21T02:39:18;100248.50;;;20.54;98.81
16777;BME280;8505;49.456;8.164;2023-08-21T02:41:46;100241.91;;;20.50;99.05
16777;BME280;8505;49.456;8.164;2023-08-21T02:44:13;100252.03;;;20.54;98.06
16777;BME280;8505;49.456;8.164;2023-08-21T02:46:41;100249.47;;;20.59;97.84
16777;BME280;8505;49.456;8.164;2023-08-21T02:49:10;100253.44;;;20.57;97.96
16777;BME280;8505;49.456;8.164;2023-08-21T02:51:38;100246.03;;;20.52;98.62
16777;BME280;8505;49.456;8.164;2023-08-21T02:54:05;100246.31;;;20.44;99.03
16777;BME280;8505;49.456;8.164;2023-08-21T02:56:33;100244.59;;;20.50;98.61
16777;BME280;8505;49.456;8.164;2023-08-21T02:59:01;100245.94;;;20.41;99.37
16777;BME280;8505;49.456;8.164;2023-08-21T03:01:28;100245.56;;;20.37;99.78
16777;BME280;8505;49.456;8.164;2023-08-21T03:03:56;100250.13;;;20.37;99.87
16777;BME280;8505;49.456;8.164;2023-08-21T03:06:25;100248.19;;;20.44;99.47
16777;BME280;8505;49.456;8.164;2023-08-21T03:08:53;100240.56;;;20.41;99.06
16777;BME280;8505;49.456;8.164;2023-08-21T03:11:21;100246.31;;;20.44;98.74
16777;BME280;8505;49.456;8.164;2023-08-21T03:13:48;100240.03;;;20.50;98.62
16777;BME280;8505;49.456;8.164;2023-08-21T03:16:16;100237.13;;;20.52;98.32
16777;BME280;8505;49.456;8.164;2023-08-21T03:18:57;100236.84;;;20.42;98.53
16777;BME280;8505;49.456;8.164;2023-08-21T03:21:26;100244.91;;;20.42;98.70
16777;BME280;8505;49.456;8.164;2023-08-21T03:23:56;100239.59;;;20.35;99.25
16777;BME280;8505;49.456;8.164;2023-08-21T03:26:24;100237.53;;;20.31;99.32
16777;BME280;8505;49.456;8.164;2023-08-21T03:28:52;100243.78;;;20.25;99.94
16777;BME280;8505;49.456;8.164;2023-08-21T03:31:20;100249.84;;;20.20;100.00
16777;BME280;8505;49.456;8.164;2023-08-21T03:33:48;100244.25;;;20.22;100.00
16777;BME280;8505;49.456;8.164;2023-08-21T03:36:15;100248.59;;;20.23;100.00
16777;BME280;8505;49.456;8.164;2023-08-21T03:38:44;100253.56;;;20.19;99.99
16777;BME280;8505;49.456;8.164;2023-08-21T03:41:12;100245.28;;;20.20;100.00
16777;BME280;8505;49.456;8.164;2023-08-21T03:43:40;100246.06;;;20.28;99.95
16777;BME280;8505;49.456;8.164;2023-08-21T03:46:07;100241.81;;;20.38;99.24
16777;BME280;8505;49.456;8.164;2023-08-21T03:48:35;100251.44;;;20.28;99.23
16777;BME280;8505;49.456;8.164;2023-08-21T03:51:03;100248.13;;;20.26;99.55
16777;BME280;8505;49.456;8.164;2023-08-21T03:53:30;100249.75;;;20.08;100.00
16777;BME280;8505;49.456;8.164;2023-08-21T03:56:00;100252.50;;;20.02;100.00
16777;BME280;8505;49.456;8.164;2023-08-21T03:58:27;100257.50;;;19.98;100.00
16777;BME280;8505;49.456;8.164;2023-08-21T04:00:55;100256.22;;;20.01;100.00
16777;BME280;8505;49.456;8.164;2023-08-21T04:03:23;100255.69;;;19.92;100.00
16777;BME280;8505;49.456;8.164;2023-08-21T04:05:53;100262.88;;;19.98;100.00
16777;BME280;8505;49.456;8.164;2023-08-21T04:08:21;100266.38;;;19.99;100.00
16777;BME280;8505;49.456;8.164;2023-08-21T04:10:48;100270.06;;;19.79;100.00
16777;BME280;8505;49.456;8.164;2023-08-21T04:13:20;100270.66;;;20.06;100.00
16777;BME280;8505;49.456;8.164;2023-08-21T04:15:48;100266.38;;;19.99;100.00
16777;BME280;8505;49.456;8.164;2023-08-21T04:18:17;100278.41;;;19.96;100.00
16777;BME280;8505;49.456;8.164;2023-08-21T04:21:04;100265.41;;;19.93;100.00
16777;BME280;8505;49.456;8.164;2023-08-21T04:23:32;100275.09;;;19.94;100.00
16777;BME280;8505;49.456;8.164;2023-08-21T04:26:00;100275.53;;;19.91;100.00
16777;BME280;8505;49.456;8.164;2023-08-21T04:28:31;100278.22;;;19.91;100.00
16777;BME280;8505;49.456;8.164;2023-08-21T04:30:59;100278.84;;;19.93;100.00
16777;BME280;8505;49.456;8.164;2023-08-21T04:33:28;100283.28;;;19.81;100.00
16777;BME280;8505;49.456;8.164;2023-08-21T04:35:56;100280.34;;;19.83;100.00
16777;BME280;8505;49.456;8.164;2023-08-21T04:38:23;100283.53;;;19.73;100.00
16777;BME280;8505;49.456;8.164;2023-08-21T04:40:51;100287.47;;;19.70;100.00
16777;BME280;8505;49.456;8.164;2023-08-21T04:43:19;100283.53;;;19.73;100.00
16777;BME280;8505;49.456;8.164;2023-08-21T04:45:48;100292.94;;;19.57;100.00
16777;BME280;8505;49.456;8.164;2023-08-21T04:48:17;100291.16;;;19.76;100.00
16777;BME280;8505;49.456;8.164;2023-08-21T04:50:45;100292.38;;;19.80;100.00
16777;BME280;8505;49.456;8.164;2023-08-21T04:53:13;100293.06;;;19.69;100.00
16777;BME280;8505;49.456;8.164;2023-08-21T04:55:41;100300.00;;;19.83;100.00
16777;BME280;8505;49.456;8.164;2023-08-21T04:58:09;100296.88;;;19.86;100.00
16777;BME280;8505;49.456;8.164;2023-08-21T05:00:37;100297.59;;;20.00;100.00
16777;BME280;8505;49.456;8.164;2023-08-21T05:03:07;100292.06;;;19.95;100.00
16777;BME280;8505;49.456;8.164;2023-08-21T05:05:36;100298.69;;;19.92;100.00
16777;BME280;8505;49.456;8.164;2023-08-21T05:08:03;100301.97;;;19.94;100.00
16777;BME280;8505;49.456;8.164;2023-08-21T05:10:31;100297.53;;;20.06;100.00
16777;BME280;8505;49.456;8.164;2023-08-21T05:12:59;100304.97;;;20.11;99.32
16777;BME280;8505;49.456;8.164;2023-08-21T05:15:27;100300.72;;;20.22;98.58
16777;BME280;8505;49.456;8.164;2023-08-21T05:17:54;100299.00;;;20.34;97.36
16777;BME280;8505;49.456;8.164;2023-08-21T05:20:23;100302.91;;;20.31;97.37
16777;BME280;8505;49.456;8.164;2023-08-21T05:22:51;100301.91;;;20.32;97.72
16777;BME280;8505;49.456;8.164;2023-08-21T05:25:18;100306.63;;;20.37;96.92
16777;BME280;8505;49.456;8.164;2023-08-21T05:27:47;100301.66;;;20.58;95.40
16777;BME280;8505;49.456;8.164;2023-08-21T05:30:14;100303.88;;;20.62;95.16
16777;BME280;8505;49.456;8.164;2023-08-21T05:32:42;100305.72;;;20.86;93.99
16777;BME280;8505;49.456;8.164;2023-08-21T05:35:10;100303.03;;;20.86;93.10
16777;BME280;8505;49.456;8.164;2023-08-21T05:37:39;100301.31;;;20.91;92.88
16777;BME280;8505;49.456;8.164;2023-08-21T05:40:07;100308.84;;;21.01;93.05
16777;BME280;8505;49.456;8.164;2023-08-21T05:42:35;100309.91;;;21.18;91.95
16777;BME280;8505;49.456;8.164;2023-08-21T05:45:04;100309.47;;;21.21;91.52
16777;BME280;8505;49.456;8.164;2023-08-21T05:47:31;100316.81;;;21.44;90.29
16777;BME280;8505;49.456;8.164;2023-08-21T05:49:59;100316.03;;;21.55;89.28
16777;BME280;8505;49.456;8.164;2023-08-21T05:52:27;100324.25;;;21.78;87.84
16777;BME280;8505;49.456;8.164;2023-08-21T05:54:56;100321.72;;;21.65;87.97
16777;BME280;8505;49.456;8.164;2023-08-21T05:57:24;100319.09;;;21.89;86.31
16777;BME280;8505;49.456;8.164;2023-08-21T05:59:52;100325.09;;;21.91;87.11
16777;BME280;8505;49.456;8.164;2023-08-21T06:02:20;100329.16;;;22.23;85.74
16777;BME280;8505;49.456;8.164;2023-08-21T06:04:47;100327.66;;;22.27;85.18
16777;BME280;8505;49.456;8.164;2023-08-21T06:07:15;100331.59;;;22.13;85.33
16777;BME280;8505;49.456;8.164;2023-08-21T06:09:43;100329.88;;;22.53;83.46
16777;BME280;8505;49.456;8.164;2023-08-21T06:12:12;100330.22;;;22.92;82.04
16777;BME280;8505;49.456;8.164;2023-08-21T06:14:39;100335.72;;;22.97;81.76
16777;BME280;8505;49.456;8.164;2023-08-21T06:17:09;100331.72;;;23.79;77.87
16777;BME280;8505;49.456;8.164;2023-08-21T06:19:37;100322.44;;;24.37;74.89
16777;BME280;8505;49.456;8.164;2023-08-21T06:22:04;100331.81;;;24.30;75.87
16777;BME280;8505;49.456;8.164;2023-08-21T06:24:32;100327.97;;;24.64;72.80
16777;BME280;8505;49.456;8.164;2023-08-21T06:27:00;100332.53;;;24.97;72.35
16777;BME280;8505;49.456;8.164;2023-08-21T06:29:29;100333.94;;;24.83;71.68
16777;BME280;8505;49.456;8.164;2023-08-21T06:31:57;100331.78;;;25.23;71.12
16777;BME280;8505;49.456;8.164;2023-08-21T06:34:24;100330.09;;;25.17;70.72
16777;BME280;8505;49.456;8.164;2023-08-21T06:36:52;100324.06;;;25.37;70.04
16777;BME280;8505;49.456;8.164;2023-08-21T06:39:20;100334.09;;;25.58;69.45
16777;BME280;8505;49.456;8.164;2023-08-21T06:41:47;100332.16;;;25.10;71.06
16777;BME280;8505;49.456;8.164;2023-08-21T06:44:15;100327.16;;;25.46;69.84
16777;BME280;8505;49.456;8.164;2023-08-21T06:46:44;100327.44;;;25.98;68.44
16777;BME280;8505;49.456;8.164;2023-08-21T06:49:12;100330.59;;;25.85;68.50
16777;BME280;8505;49.456;8.164;2023-08-21T06:51:40;100332.50;;;25.62;68.88
16777;BME280;8505;49.456;8.164;2023-08-21T06:54:07;100333.13;;;25.69;67.83
16777;BME280;8505;49.456;8.164;2023-08-21T06:56:35;100321.94;;;25.39;70.51
16777;BME280;8505;49.456;8.164;2023-08-21T06:59:03;100329.75;;;25.84;68.42
16777;BME280;8505;49.456;8.164;2023-08-21T07:01:31;100325.47;;;26.57;65.33
16777;BME280;8505;49.456;8.164;2023-08-21T07:04:00;100317.41;;;27.24;62.93
16777;BME280;8505;49.456;8.164;2023-08-21T07:06:27;100326.31;;;27.97;60.04
16777;BME280;8505;49.456;8.164;2023-08-21T07:08:55;100311.06;;;28.37;59.92
16777;BME280;8505;49.456;8.164;2023-08-21T07:11:23;100317.59;;;28.05;59.37
16777;BME280;8505;49.456;8.164;2023-08-21T07:13:50;100316.78;;;28.40;58.02
16777;BME280;8505;49.456;8.164;2023-08-21T07:16:18;100314.59;;;28.42;58.13
16777;BME280;8505;49.456;8.164;2023-08-21T07:18:46;100311.34;;;29.35;56.66
16777;BME280;8505;49.456;8.164;2023-08-21T07:21:15;100314.44;;;29.08;55.97
16777;BME280;8505;49.456;8.164;2023-08-21T07:23:59;100311.09;;;29.37;55.04
16777;BME280;8505;49.456;8.164;2023-08-21T07:26:26;100310.47;;;29.50;54.71
16777;BME280;8505;49.456;8.164;2023-08-21T07:28:55;100313.97;;;29.55;54.88
16777;BME280;8505;49.456;8.164;2023-08-21T07:31:24;100313.13;;;29.60;55.04
16777;BME280;8505;49.456;8.164;2023-08-21T07:33:52;100321.41;;;29.84;54.29
16777;BME280;8505;49.456;8.164;2023-08-21T07:36:21;100317.50;;;30.00;53.76
16777;BME280;8505;49.456;8.164;2023-08-21T07:38:49;100318.72;;;29.79;54.50
16777;BME280;8505;49.456;8.164;2023-08-21T07:41:17;100317.19;;;30.35;52.98
16777;BME280;8505;49.456;8.164;2023-08-21T07:43:45;100317.75;;;30.32;53.36
16777;BME280;8505;49.456;8.164;2023-08-21T07:46:13;100319.25;;;30.77;50.84
16777;BME280;8505;49.456;8.164;2023-08-21T07:48:43;100318.47;;;30.43;52.06
16777;BME280;8505;49.456;8.164;2023-08-21T07:51:11;100324.09;;;29.99;53.08
16777;BME280;8505;49.456;8.164;2023-08-21T07:53:41;100324.91;;;29.99;53.68
16777;BME280;8505;49.456;8.164;2023-08-21T07:56:08;100317.31;;;31.02;51.53
16777;BME280;8505;49.456;8.164;2023-08-21T07:58:36;100316.00;;;31.42;49.84
16777;BME280;8505;49.456;8.164;2023-08-21T08:01:04;100314.75;;;31.53;49.81
16777;BME280;8505;49.456;8.164;2023-08-21T08:03:32;100314.63;;;32.33;48.10
16777;BME280;8505;49.456;8.164;2023-08-21T08:06:00;100310.22;;;31.99;48.83
16777;BME280;8505;49.456;8.164;2023-08-21T08:08:27;100317.09;;;30.98;50.89
16777;BME280;8505;49.456;8.164;2023-08-21T08:11:00;100323.84;;;30.58;52.33
16777;BME280;8505;49.456;8.164;2023-08-21T08:13:28;100315.00;;;30.90;51.94
16777;BME280;8505;49.456;8.164;2023-08-21T08:15:56;100313.53;;;31.64;49.92
16777;BME280;8505;49.456;8.164;2023-08-21T08:18:24;100307.50;;;32.32;48.00
16777;BME280;8505;49.456;8.164;2023-08-21T08:20:52;100304.06;;;32.40;47.93
16777;BME280;8505;49.456;8.164;2023-08-21T08:23:20;100312.31;;;32.53;47.52
16777;BME280;8505;49.456;8.164;2023-08-21T08:25:50;100320.00;;;31.49;50.34
16777;BME280;8505;49.456;8.164;2023-08-21T08:28:19;100313.31;;;32.44;47.38
16777;BME280;8505;49.456;8.164;2023-08-21T08:30:46;100312.03;;;31.90;49.03
16777;BME280;8505;49.456;8.164;2023-08-21T08:33:14;100307.38;;;31.53;50.14
16777;BME280;8505;49.456;8.164;2023-08-21T08:35:42;100301.78;;;32.15;49.06
16777;BME280;8505;49.456;8.164;2023-08-21T08:38:10;100310.72;;;32.66;47.86
16777;BME280;8505;49.456;8.164;2023-08-21T08:40:43;100307.47;;;32.78;47.46
16777;BME280;8505;49.456;8.164;2023-08-21T08:43:11;100301.03;;;32.55;47.72
16777;BME280;8505;49.456;8.164;2023-08-21T08:45:41;100299.25;;;32.78;46.88
16777;BME280;8505;49.456;8.164;2023-08-21T08:48:12;100304.66;;;32.37;47.90
16777;BME280;8505;49.456;8.164;2023-08-21T08:50:40;100298.25;;;32.87;47.11
16777;BME280;8505;49.456;8.164;2023-08-21T08:53:09;100298.03;;;32.84;47.77
16777;BME280;8505;49.456;8.164;2023-08-21T08:55:42;100295.91;;;32.95;46.55
16777;BME280;8505;49.456;8.164;2023-08-21T08:58:10;100298.81;;;33.39;46.62
16777;BME280;8505;49.456;8.164;2023-08-21T09:00:38;100298.31;;;33.73;45.25
16777;BME280;8505;49.456;8.164;2023-08-21T09:03:07;100289.78;;;33.61;45.44
16777;BME280;8505;49.456;8.164;2023-08-21T09:05:36;100284.59;;;33.59;44.94
16777;BME280;8505;49.456;8.164;2023-08-21T09:08:09;100285.63;;;33.63;45.25
16777;BME280;8505;49.456;8.164;2023-08-21T09:10:38;100285.00;;;33.89;44.34
16777;BME280;8505;49.456;8.164;2023-08-21T09:13:12;100282.31;;;33.97;43.81
16777;BME280;8505;49.456;8.164;2023-08-21T09:15:41;100285.78;;;34.34;44.52
16777;BME280;8505;49.456;8.164;2023-08-21T09:18:11;100282.50;;;34.01;43.58
16777;BME280;8505;49.456;8.164;2023-08-21T09:20:39;100283.78;;;33.59;44.51
16777;BME280;8505;49.456;8.164;2023-08-21T09:23:07;100274.69;;;34.47;42.58
16777;BME280;8505;49.456;8.164;2023-08-21T09:25:36;100276.56;;;34.69;42.38
16777;BME280;8505;49.456;8.164;2023-08-21T09:28:05;100273.31;;;34.28;42.24
16777;BME280;8505;49.456;8.164;2023-08-21T09:30:44;100279.31;;;34.07;43.97
16777;BME280;8505;49.456;8.164;2023-08-21T09:33:16;100281.00;;;34.79;41.33
16777;BME280;8505;49.456;8.164;2023-08-21T09:35:45;100273.06;;;34.46;41.51
16777;BME280;8505;49.456;8.164;2023-08-21T09:38:13;100264.78;;;33.49;43.71
16777;BME280;8505;49.456;8.164;2023-08-21T09:40:42;100280.38;;;33.98;41.80
16777;BME280;8505;49.456;8.164;2023-08-21T09:43:10;100269.81;;;33.69;41.83
16777;BME280;8505;49.456;8.164;2023-08-21T09:45:38;100271.72;;;34.35;40.48
16777;BME280;8505;49.456;8.164;2023-08-21T09:48:07;100267.94;;;35.02;38.83
16777;BME280;8505;49.456;8.164;2023-08-21T09:50:36;100257.16;;;35.57;38.12
16777;BME280;8505;49.456;8.164;2023-08-21T09:53:06;100260.41;;;35.42;37.26
16777;BME280;8505;49.456;8.164;2023-08-21T09:55:35;100269.75;;;33.83;39.93
16777;BME280;8505;49.456;8.164;2023-08-21T09:58:03;100260.88;;;35.44;37.51
16777;BME280;8505;49.456;8.164;2023-08-21T10:00:32;100266.38;;;36.04;35.88
16777;BME280;8505;49.456;8.164;2023-08-21T10:03:02;100256.28;;;36.08;35.89
16777;BME280;8505;49.456;8.164;2023-08-21T10:05:31;100261.16;;;34.99;38.35
16777;BME280;8505;49.456;8.164;2023-08-21T10:08:03;100258.53;;;34.55;39.12
16777;BME280;8505;49.456;8.164;2023-08-21T10:10:32;100268.38;;;34.78;37.77
16777;BME280;8505;49.456;8.164;2023-08-21T10:13:00;100265.88;;;34.28;38.14
16777;BME280;8505;49.456;8.164;2023-08-21T10:15:28;100253.16;;;34.89;37.53
16777;BME280;8505;49.456;8.164;2023-08-21T10:17:57;100251.97;;;35.29;36.18
16777;BME280;8505;49.456;8.164;2023-08-21T10:20:26;100256.31;;;35.30;36.48
16777;BME280;8505;49.456;8.164;2023-08-21T10:22:54;100250.88;;;34.74;37.39
16777;BME280;8505;49.456;8.164;2023-08-21T10:25:24;100243.84;;;35.85;33.54
16777;BME280;8505;49.456;8.164;2023-08-21T10:27:58;100238.19;;;35.47;35.18
16777;BME280;8505;49.456;8.164;2023-08-21T10:30:29;100234.09;;;36.04;34.68
16777;BME280;8505;49.456;8.164;2023-08-21T10:32:58;100235.09;;;35.91;33.82
16777;BME280;8505;49.456;8.164;2023-08-21T10:35:29;100240.59;;;35.31;32.74
16777;BME280;8505;49.456;8.164;2023-08-21T10:38:07;100240.59;;;35.74;31.16
16777;BME280;8505;49.456;8.164;2023-08-21T10:40:37;100235.59;;;35.85;33.61
16777;BME280;8505;49.456;8.164;2023-08-21T10:43:39;100240.72;;;35.09;35.45
16777;BME280;8505;49.456;8.164;2023-08-21T10:46:07;100235.56;;;35.24;35.36
16777;BME280;8505;49.456;8.164;2023-08-21T10:48:35;100235.88;;;35.06;33.45
16777;BME280;8505;49.456;8.164;2023-08-21T10:51:04;100231.03;;;35.80;33.82
16777;BME280;8505;49.456;8.164;2023-08-21T10:53:34;100230.31;;;36.09;33.14
16777;BME280;8505;49.456;8.164;2023-08-21T10:56:04;100234.78;;;35.76;34.75
16777;BME280;8505;49.456;8.164;2023-08-21T10:58:34;100220.13;;;35.06;35.56
16777;BME280;8505;49.456;8.164;2023-08-21T11:01:02;100214.09;;;36.07;33.67
16777;BME280;8505;49.456;8.164;2023-08-21T11:03:30;100215.22;;;36.06;33.07
16777;BME280;8505;49.456;8.164;2023-08-21T11:06:02;100212.53;;;35.81;33.76
16777;BME280;8505;49.456;8.164;2023-08-21T11:08:31;100217.25;;;35.80;34.08
16777;BME280;8505;49.456;8.164;2023-08-21T11:11:00;100218.47;;;36.17;33.90
16777;BME280;8505;49.456;8.164;2023-08-21T11:13:29;100213.88;;;37.18;32.15
16777;BME280;8505;49.456;8.164;2023-08-21T11:15:58;100205.63;;;36.13;33.99
16777;BME280;8505;49.456;8.164;2023-08-21T11:18:32;100208.75;;;36.49;32.96
16777;BME280;8505;49.456;8.164;2023-08-21T11:21:05;100209.53;;;36.12;33.13
16777;BME280;8505;49.456;8.164;2023-08-21T11:23:33;100211.53;;;35.94;33.65
16777;BME280;8505;49.456;8.164;2023-08-21T11:26:02;100209.97;;;37.19;32.62
16777;BME280;8505;49.456;8.164;2023-08-21T11:28:48;100205.53;;;37.26;31.83
16777;BME280;8505;49.456;8.164;2023-08-21T11:31:16;100200.31;;;37.04;31.62
16777;BME280;8505;49.456;8.164;2023-08-21T11:33:49;100196.47;;;36.97;32.33
16777;BME280;8505;49.456;8.164;2023-08-21T11:36:17;100205.59;;;37.39;31.34
16777;BME280;8505;49.456;8.164;2023-08-21T11:38:57;100204.00;;;35.48;34.75
16777;BME280;8505;49.456;8.164;2023-08-21T11:41:26;100209.22;;;36.13;33.72
16777;BME280;8505;49.456;8.164;2023-08-21T11:44:01;100200.06;;;34.97;35.34
16777;BME280;8505;49.456;8.164;2023-08-21T11:46:29;100194.53;;;35.83;34.17
16777;BME280;8505;49.456;8.164;2023-08-21T11:48:57;100189.59;;;36.53;33.49
16777;BME280;8505;49.456;8.164;2023-08-21T11:51:27;100189.41;;;36.20;33.62
16777;BME280;8505;49.456;8.164;2023-08-21T11:53:55;100191.19;;;36.16;33.36
16777;BME280;8505;49.456;8.164;2023-08-21T11:56:27;100195.47;;;35.96;33.82
16777;BME280;8505;49.456;8.164;2023-08-21T11:58:57;100189.41;;;35.39;34.62
16777;BME280;8505;49.456;8.164;2023-08-21T12:01:26;100190.81;;;35.02;35.42
16777;BME280;8505;49.456;8.164;2023-08-21T12:03:53;100188.25;;;35.14;34.93
16777;BME280;8505;49.456;8.164;2023-08-21T12:06:22;100188.66;;;35.93;34.21
16777;BME280;8505;49.456;8.164;2023-08-21T12:08:51;100190.06;;;35.27;35.38
16777;BME280;8505;49.456;8.164;2023-08-21T12:11:21;100197.00;;;34.99;35.30
16777;BME280;8505;49.456;8.164;2023-08-21T12:13:49;100189.19;;;34.83;35.84
16777;BME280;8505;49.456;8.164;2023-08-21T12:16:19;100188.25;;;35.57;34.69
16777;BME280;8505;49.456;8.164;2023-08-21T12:18:47;100188.97;;;36.00;34.01
16777;BME280;8505;49.456;8.164;2023-08-21T12:21:15;100188.06;;;35.79;34.94
16777;BME280;8505;49.456;8.164;2023-08-21T12:23:42;100189.16;;;35.87;33.61
16777;BME280;8505;49.456;8.164;2023-08-21T12:26:10;100188.06;;;35.79;33.97
16777;BME280;8505;49.456;8.164;2023-08-21T12:28:38;100186.13;;;35.80;33.39
16777;BME280;8505;49.456;8.164;2023-08-21T12:31:05;100181.16;;;35.21;35.34
16777;BME280;8505;49.456;8.164;2023-08-21T12:33:34;100178.84;;;35.66;34.24
16777;BME280;8505;49.456;8.164;2023-08-21T12:36:03;100168.94;;;35.57;34.10
16777;BME280;8505;49.456;8.164;2023-08-21T12:38:31;100169.66;;;36.47;32.84
16777;BME280;8505;49.456;8.164;2023-08-21T12:40:59;100163.38;;;36.67;32.97
16777;BME280;8505;49.456;8.164;2023-08-21T12:43:27;100160.56;;;36.97;32.70
16777;BME280;8505;49.456;8.164;2023-08-21T12:45:55;100162.63;;;35.65;34.58
16777;BME280;8505;49.456;8.164;2023-08-21T12:48:23;100160.31;;;36.31;33.56
16777;BME280;8505;49.456;8.164;2023-08-21T12:50:52;100152.69;;;36.57;33.59
16777;BME280;8505;49.456;8.164;2023-08-21T12:53:20;100146.81;;;37.09;31.94
16777;BME280;8505;49.456;8.164;2023-08-21T12:55:47;100141.56;;;37.49;31.57
16777;BME280;8505;49.456;8.164;2023-08-21T12:58:15;100149.13;;;37.60;31.38
16777;BME280;8505;49.456;8.164;2023-08-21T13:00:44;100143.78;;;37.88;31.97
16777;BME280;8505;49.456;8.164;2023-08-21T13:03:12;100140.13;;;36.68;32.48
16777;BME280;8505;49.456;8.164;2023-08-21T13:05:40;100136.59;;;37.09;32.45
16777;BME280;8505;49.456;8.164;2023-08-21T13:08:09;100137.03;;;37.32;31.28